This is the latest recevied weather packets stored in our database for station/object IZ1MEU-13. If no packets are shown the sender has not sent any weather packets the latest 10 day(s).
| Time | Temp. | Humidity | Pressure | Rain* | Wind** | Luminosity | Snow |
|---|---|---|---|---|---|---|---|
| 1778268457 | 13.33° C | 55% | 1019.2 hPa | - | - | - | - |
| 1778267253 | 13.89° C | 52% | 1018.9 hPa | - | - | - | - |
| 1778266049 | 14.44° C | 50% | 1018.7 hPa | - | - | - | - |
| 1778264845 | 15.56° C | 49% | 1018.5 hPa | - | - | - | - |
| 1778263642 | 16.67° C | 46% | 1018.3 hPa | - | - | - | - |
| 1778262438 | 17.22° C | 45% | 1018.2 hPa | - | - | - | - |
| 1778261234 | 18.33° C | 45% | 1018 hPa | - | - | - | - |
| 1778260030 | 18.33° C | 45% | 1017.9 hPa | - | - | - | - |
| 1778258826 | 18.89° C | 45% | 1017.9 hPa | - | - | - | - |
| 1778257623 | 19.44° C | 44% | 1017.8 hPa | - | - | - | - |
| 1778256419 | 20.56° C | 41% | 1017.7 hPa | - | - | - | - |
| 1778255215 | 20.56° C | 43% | 1017.9 hPa | - | - | - | - |
| 1778254011 | 20° C | 43% | 1017.9 hPa | - | - | - | - |
| 1778252808 | 20° C | 43% | 1017.9 hPa | - | - | - | - |
| 1778250401 | 19.44° C | 44% | 1018.4 hPa | - | - | - | - |
| 1778249198 | 19.44° C | 45% | 1018.4 hPa | - | - | - | - |
| 1778247993 | 19.44° C | 44% | 1018.7 hPa | - | - | - | - |
| 1778246789 | 18.89° C | 49% | 1018.8 hPa | - | - | - | - |
| 1778245585 | 18.33° C | 49% | 1018.9 hPa | - | - | - | - |
| 1778244381 | 18.33° C | 50% | 1019 hPa | - | - | - | - |
| 1778243178 | 17.22° C | 50% | 1019.2 hPa | - | - | - | - |
| 1778241974 | 17.22° C | 52% | 1019.3 hPa | - | - | - | - |
| 1778240770 | 16.11° C | 55% | 1019.2 hPa | - | - | - | - |
| 1778239566 | 15.56° C | 57% | 1019.4 hPa | - | - | - | - |
| 1778238363 | 14.44° C | 58% | 1019.4 hPa | - | - | - | - |
* Rain since midnight (hover to see other rain measurements)
** Current wind speed in m/s (hover to see current wind gust speed)